createdAt,value
2018-03-06T00:02:08.388Z,67.78
2018-03-06T00:04:34.854Z,57.08
2018-03-06T00:07:01.299Z,59.45
2018-03-06T00:09:27.737Z,60.55
2018-03-06T00:11:54.191Z,61.95
2018-03-06T00:14:21.493Z,61.88
2018-03-06T00:16:47.943Z,56.03
2018-03-06T00:19:14.503Z,59.97
2018-03-06T00:21:40.938Z,65.07
2018-03-06T00:24:08.153Z,57.90
2018-03-06T00:26:35.135Z,58.53
2018-03-06T00:29:01.551Z,57.70
2018-03-06T00:31:27.969Z,66.03
2018-03-06T00:33:55.143Z,64.12
2018-03-06T00:36:22.355Z,58.35
2018-03-06T00:38:48.766Z,67.18
2018-03-06T00:41:15.235Z,63.75
2018-03-06T00:43:42.578Z,64.53
2018-03-06T00:46:08.981Z,62.97
2018-03-06T00:48:36.275Z,62.92
2018-03-06T00:51:02.774Z,59.28
2018-03-06T00:53:29.215Z,59.92
2018-03-06T00:55:55.657Z,70.90
2018-03-06T00:58:22.055Z,58.92
2018-03-06T01:00:48.965Z,63.95
2018-03-06T01:03:15.404Z,60.03
2018-03-06T01:05:42.650Z,54.85
2018-03-06T01:08:09.419Z,65.40
2018-03-06T01:10:36.599Z,54.20
2018-03-06T01:13:03.772Z,63.83
2018-03-06T01:15:30.979Z,61.88
2018-03-06T01:17:57.387Z,56.13
2018-03-06T01:20:23.853Z,60.60
2018-03-06T01:22:50.301Z,60.88
2018-03-06T01:25:17.496Z,60.90
2018-03-06T01:27:44.688Z,61.85
2018-03-06T01:30:11.114Z,59.35
2018-03-06T01:32:38.277Z,63.03
2018-03-06T01:35:04.717Z,62.58
2018-03-06T01:37:31.191Z,55.15
2018-03-06T01:39:58.507Z,62.58
2018-03-06T01:42:24.915Z,56.30
2018-03-06T01:44:51.358Z,64.55
2018-03-06T01:47:17.792Z,65.07
2018-03-06T01:49:44.222Z,69.30
2018-03-06T01:52:10.684Z,58.92
2018-03-06T01:54:37.129Z,61.70
2018-03-06T01:57:03.595Z,59.92
2018-03-06T01:59:30.035Z,60.55
2018-03-06T02:01:56.486Z,58.55
2018-03-06T02:04:22.909Z,61.95
2018-03-06T02:06:49.420Z,60.40
2018-03-06T02:09:15.893Z,58.47
2018-03-06T02:11:42.399Z,56.50
2018-03-06T02:14:09.574Z,55.10
2018-03-06T02:16:36.881Z,58.50
2018-03-06T02:19:03.428Z,60.17
2018-03-06T02:21:29.871Z,62.72
2018-03-06T02:23:57.170Z,64.22
2018-03-06T02:26:25.747Z,59.55
2018-03-06T02:28:53.049Z,62.28
2018-03-06T02:31:19.482Z,63.13
2018-03-06T02:33:46.676Z,64.75
2018-03-06T02:36:13.122Z,61.60
2018-03-06T02:38:39.570Z,61.08
2018-03-06T02:41:06.018Z,63.45
2018-03-06T02:43:33.192Z,61.45
2018-03-06T02:46:09.571Z,73.55
2018-03-06T02:48:36.002Z,60.55
2018-03-06T02:51:02.474Z,59.92
2018-03-06T02:53:29.722Z,61.35
2018-03-06T02:55:58.152Z,66.53
2018-03-06T02:58:24.610Z,65.95
2018-03-06T03:00:51.766Z,58.38
2018-03-06T03:03:18.953Z,62.00
2018-03-06T03:05:46.125Z,59.05
2018-03-06T03:08:13.303Z,57.47
2018-03-06T03:10:40.587Z,57.38
2018-03-06T03:13:07.019Z,57.13
2018-03-06T03:15:34.196Z,57.75
2018-03-06T03:18:01.405Z,48.80
2018-03-06T03:20:27.841Z,52.45
2018-03-06T03:22:54.284Z,55.30
2018-03-06T03:25:21.497Z,52.08
2018-03-06T03:27:48.045Z,46.55
2018-03-06T03:30:14.613Z,55.72
2018-03-06T03:32:41.024Z,51.58
2018-03-06T03:35:08.212Z,49.20
2018-03-06T03:37:34.790Z,54.42
2018-03-06T03:40:01.224Z,52.33
2018-03-06T03:42:28.402Z,54.08
2018-03-06T03:44:55.841Z,49.67
2018-03-06T03:47:22.293Z,62.15
2018-03-06T03:49:48.752Z,53.65
2018-03-06T03:52:15.267Z,57.42
2018-03-06T03:54:41.709Z,54.33
2018-03-06T03:57:08.150Z,59.80
2018-03-06T03:59:35.328Z,54.80
2018-03-06T04:02:03.214Z,54.72
2018-03-06T04:04:30.420Z,54.83
2018-03-06T04:06:56.888Z,57.25
2018-03-06T04:09:23.331Z,58.40
2018-03-06T04:11:49.884Z,57.35
2018-03-06T04:14:16.317Z,61.33
2018-03-06T04:16:42.775Z,56.37
2018-03-06T04:19:09.197Z,57.83
2018-03-06T04:21:35.667Z,59.35
2018-03-06T04:24:02.836Z,63.45
2018-03-06T04:26:29.287Z,61.65
2018-03-06T04:28:56.491Z,62.25
2018-03-06T04:31:23.677Z,66.25
2018-03-06T04:33:50.148Z,69.03
2018-03-06T04:36:16.619Z,64.35
2018-03-06T04:38:43.890Z,63.67
2018-03-06T04:41:10.332Z,61.00
2018-03-06T04:43:36.738Z,61.30
2018-03-06T04:46:04.006Z,58.35
2018-03-06T04:48:30.445Z,55.45
2018-03-06T04:50:56.881Z,56.97
2018-03-06T04:53:23.425Z,51.08
2018-03-06T04:55:49.858Z,56.60
2018-03-06T04:58:17.051Z,55.25
2018-03-06T05:00:43.502Z,60.85
2018-03-06T05:03:09.933Z,54.58
2018-03-06T05:05:37.100Z,52.78
2018-03-06T05:08:04.280Z,56.53
2018-03-06T05:10:31.464Z,56.83
2018-03-06T05:12:57.923Z,53.08
2018-03-06T05:15:24.393Z,55.47
2018-03-06T05:17:50.830Z,63.50
2018-03-06T05:20:17.410Z,61.33
2018-03-06T05:22:43.882Z,59.83
2018-03-06T05:25:10.318Z,63.03
2018-03-06T05:27:36.768Z,58.95
2018-03-06T05:30:03.255Z,62.13
2018-03-06T05:32:29.737Z,59.33
2018-03-06T05:34:56.185Z,52.90
2018-03-06T05:37:22.601Z,57.38
2018-03-06T05:39:49.114Z,59.85
2018-03-06T05:42:15.549Z,58.15
2018-03-06T05:44:41.979Z,62.38
2018-03-06T05:47:08.442Z,62.42
2018-03-06T05:49:34.912Z,68.85
2018-03-06T05:52:01.341Z,66.22
2018-03-06T05:54:27.779Z,60.08
2018-03-06T05:56:54.277Z,63.75
2018-03-06T05:59:20.714Z,68.50
2018-03-06T06:01:47.159Z,65.47
2018-03-06T06:04:13.575Z,63.17
2018-03-06T06:06:39.999Z,58.63
2018-03-06T06:09:06.442Z,60.42
2018-03-06T06:11:32.968Z,62.42
2018-03-06T06:13:59.418Z,57.20
2018-03-06T06:16:25.880Z,58.20
2018-03-06T06:18:52.308Z,60.75
2018-03-06T06:21:18.774Z,57.55
2018-03-06T06:23:45.193Z,62.83
2018-03-06T06:26:13.617Z,58.83
2018-03-06T06:28:40.042Z,58.80
2018-03-06T06:31:06.462Z,61.45
2018-03-06T06:33:33.042Z,59.95
2018-03-06T06:35:59.472Z,60.97
2018-03-06T06:38:25.882Z,59.65
2018-03-06T06:40:52.323Z,61.70
2018-03-06T06:43:18.732Z,73.95
2018-03-06T06:45:45.219Z,72.87
2018-03-06T06:48:12.365Z,63.85
2018-03-06T06:50:39.449Z,66.85
2018-03-06T06:53:06.634Z,64.22
2018-03-06T06:55:33.758Z,60.42
2018-03-06T06:58:00.230Z,69.93
2018-03-06T07:00:27.256Z,61.50
2018-03-06T07:02:53.724Z,64.12
2018-03-06T07:05:20.246Z,66.12
2018-03-06T07:07:46.750Z,64.70
2018-03-06T07:10:13.392Z,65.32
2018-03-06T07:12:39.805Z,61.90
2018-03-06T07:15:06.978Z,62.13
2018-03-06T07:17:34.092Z,58.30
2018-03-06T07:20:00.538Z,59.78
2018-03-06T07:22:26.954Z,53.33
2018-03-06T07:24:54.137Z,63.55
2018-03-06T07:27:21.419Z,71.35
2018-03-06T07:29:48.575Z,62.25
2018-03-06T07:32:15.748Z,86.22
2018-03-06T07:34:42.925Z,78.03
2018-03-06T07:37:10.082Z,62.33
2018-03-06T07:39:36.524Z,55.15
2018-03-06T07:42:04.280Z,51.63
2018-03-06T07:44:31.062Z,50.30
2018-03-06T07:46:57.482Z,55.40
2018-03-06T07:49:24.863Z,51.45
2018-03-06T07:51:51.298Z,63.25
2018-03-06T07:54:18.458Z,51.90
2018-03-06T07:56:45.746Z,59.78
2018-03-06T07:59:12.900Z,62.13
2018-03-06T08:01:39.318Z,52.30
2018-03-06T08:04:05.730Z,51.05
2018-03-06T08:06:33.077Z,59.45
2018-03-06T08:09:00.225Z,50.38
2018-03-06T08:11:26.683Z,49.65
2018-03-06T08:13:53.131Z,47.60
2018-03-06T08:16:19.587Z,49.65
2018-03-06T08:18:46.110Z,53.28
2018-03-06T08:21:12.525Z,50.67
2018-03-06T08:23:38.966Z,46.00
2018-03-06T08:26:05.427Z,51.33
2018-03-06T08:28:32.446Z,56.90
2018-03-06T08:30:58.997Z,86.65
2018-03-06T08:33:26.167Z,121.82
2018-03-06T08:35:54.047Z,63.20
2018-03-06T08:38:21.188Z,64.12
2018-03-06T08:40:47.790Z,70.77
2018-03-06T08:43:15.021Z,67.62
2018-03-06T08:45:42.230Z,63.13
2018-03-06T08:48:09.517Z,59.65
2018-03-06T08:50:35.960Z,55.45
2018-03-06T08:53:03.164Z,50.33
2018-03-06T08:55:29.564Z,58.17
2018-03-06T08:57:56.033Z,51.85
2018-03-06T09:00:23.216Z,55.25
2018-03-06T09:02:50.382Z,53.22
2018-03-06T09:05:17.544Z,55.47
2018-03-06T09:07:44.024Z,49.90
2018-03-06T09:10:11.197Z,47.50
2018-03-06T09:12:38.388Z,45.72
2018-03-06T09:15:04.851Z,44.10
2018-03-06T09:17:31.327Z,43.83
2018-03-06T09:19:57.839Z,44.13
2018-03-06T09:22:25.059Z,44.22
2018-03-06T09:24:51.755Z,38.72
2018-03-06T09:27:19.014Z,41.40
2018-03-06T09:29:45.471Z,44.65
2018-03-06T09:32:12.850Z,40.05
2018-03-06T09:34:39.884Z,42.92
2018-03-06T09:37:09.885Z,44.25
2018-03-06T09:39:37.158Z,41.60
2018-03-06T09:42:04.344Z,46.20
2018-03-06T09:44:30.891Z,46.08
2018-03-06T09:46:58.164Z,45.85
2018-03-06T09:49:25.320Z,47.53
2018-03-06T09:51:52.475Z,40.08
2018-03-06T09:54:18.898Z,42.13
2018-03-06T09:56:45.346Z,42.40
2018-03-06T09:59:11.774Z,40.45
2018-03-06T10:01:39.049Z,42.17
2018-03-06T10:04:06.213Z,40.95
2018-03-06T10:06:33.355Z,40.17
2018-03-06T10:09:00.631Z,40.97
2018-03-06T10:11:27.058Z,39.28
2018-03-06T10:13:53.444Z,40.72
2018-03-06T10:16:19.864Z,41.00
2018-03-06T10:18:46.316Z,37.53
2018-03-06T10:21:12.769Z,40.17
2018-03-06T10:23:39.182Z,36.00
2018-03-06T10:26:05.626Z,37.28
2018-03-06T10:28:32.069Z,38.40
2018-03-06T10:30:58.489Z,39.40
2018-03-06T10:33:25.511Z,35.45
2018-03-06T10:35:51.940Z,35.65
2018-03-06T10:38:18.896Z,28.75
2018-03-06T10:40:45.380Z,31.33
2018-03-06T10:43:11.789Z,30.65
2018-03-06T10:45:38.209Z,27.73
2018-03-06T10:48:04.629Z,25.67
2018-03-06T10:50:31.144Z,28.30
2018-03-06T10:52:58.322Z,28.00
2018-03-06T10:55:24.871Z,24.87
2018-03-06T10:57:52.030Z,24.67
2018-03-06T11:00:25.147Z,25.70
2018-03-06T11:02:52.836Z,27.25
2018-03-06T11:05:20.037Z,29.95
2018-03-06T11:07:46.457Z,28.45
2018-03-06T11:10:13.736Z,28.65
2018-03-06T11:12:40.910Z,26.95
2018-03-06T11:15:07.818Z,29.35
2018-03-06T11:17:34.437Z,27.73
2018-03-06T11:20:01.708Z,24.83
2018-03-06T11:22:28.890Z,25.27
2018-03-06T11:24:55.321Z,27.37
2018-03-06T11:27:22.522Z,22.95
2018-03-06T11:29:48.976Z,23.70
2018-03-06T11:32:15.361Z,23.92
2018-03-06T11:34:41.773Z,24.35
2018-03-06T11:37:08.945Z,26.12
2018-03-06T11:39:36.158Z,25.55
2018-03-06T11:42:02.551Z,27.90
2018-03-06T11:44:29.662Z,24.50
2018-03-06T11:46:56.091Z,27.00
2018-03-06T11:49:23.262Z,25.30
2018-03-06T11:51:50.435Z,25.73
2018-03-06T11:54:17.583Z,24.48
2018-03-06T11:56:43.998Z,24.15
2018-03-06T11:59:10.480Z,22.37
2018-03-06T12:01:36.893Z,25.60
2018-03-06T12:04:03.336Z,23.62
2018-03-06T12:06:30.488Z,24.35
2018-03-06T12:08:56.946Z,26.45
2018-03-06T12:11:23.349Z,25.42
2018-03-06T12:13:49.787Z,28.40
2018-03-06T12:16:16.204Z,26.15
2018-03-06T12:18:42.645Z,25.55
2018-03-06T12:21:09.085Z,25.05
2018-03-06T12:23:35.498Z,28.85
2018-03-06T12:26:02.708Z,23.60
2018-03-06T12:28:29.232Z,23.33
2018-03-06T12:30:56.392Z,24.63
2018-03-06T12:33:23.526Z,22.92
2018-03-06T12:35:49.943Z,24.45
2018-03-06T12:38:16.391Z,25.73
2018-03-06T12:40:42.851Z,28.42
2018-03-06T12:43:09.308Z,22.42
2018-03-06T12:45:36.369Z,27.02
2018-03-06T12:48:03.566Z,27.15
2018-03-06T12:50:30.019Z,26.02
2018-03-06T12:52:56.462Z,22.77
2018-03-06T12:55:22.885Z,27.85
2018-03-06T12:57:49.299Z,28.30
2018-03-06T13:00:15.727Z,28.30
2018-03-06T13:02:42.193Z,27.33
2018-03-06T13:05:08.615Z,28.12
2018-03-06T13:07:35.092Z,27.58
2018-03-06T13:10:01.519Z,26.35
2018-03-06T13:12:27.934Z,29.10
2018-03-06T13:14:54.407Z,26.35
2018-03-06T13:17:20.831Z,27.85
2018-03-06T13:19:47.271Z,28.40
2018-03-06T13:22:14.476Z,31.40
2018-03-06T13:24:40.998Z,34.88
2018-03-06T13:27:08.173Z,33.03
2018-03-06T13:29:35.358Z,36.10
2018-03-06T13:32:02.514Z,35.75
2018-03-06T13:34:29.678Z,30.48
2018-03-06T13:36:56.857Z,33.38
2018-03-06T13:39:24.061Z,34.42
2018-03-06T13:41:50.443Z,35.92
2018-03-06T13:44:16.898Z,33.90
2018-03-06T13:46:43.322Z,33.85
2018-03-06T13:49:09.740Z,32.92
2018-03-06T13:51:36.961Z,36.00
2018-03-06T13:54:03.500Z,40.45
2018-03-06T13:56:29.966Z,34.95
2018-03-06T13:58:56.530Z,37.47
2018-03-06T14:01:22.934Z,36.75
2018-03-06T14:03:49.355Z,35.70
2018-03-06T14:06:15.821Z,34.92
2018-03-06T14:08:42.230Z,38.40
2018-03-06T14:11:08.742Z,35.80
2018-03-06T14:13:35.200Z,35.47
2018-03-06T14:16:01.614Z,39.65
2018-03-06T14:18:28.052Z,36.08
2018-03-06T14:20:54.463Z,41.17
2018-03-06T14:23:20.881Z,35.90
2018-03-06T14:25:47.378Z,36.53
2018-03-06T14:28:17.569Z,39.25
2018-03-06T14:30:44.070Z,38.95
2018-03-06T14:33:10.672Z,39.90
2018-03-06T14:35:37.150Z,35.22
2018-03-06T14:38:03.722Z,34.67
2018-03-06T14:40:30.184Z,42.78
2018-03-06T14:42:56.702Z,37.05
2018-03-06T14:45:23.888Z,39.67
2018-03-06T14:47:50.309Z,35.92
2018-03-06T14:50:16.739Z,38.95
2018-03-06T14:52:43.160Z,51.53
2018-03-06T14:55:10.402Z,51.97
2018-03-06T14:57:37.570Z,53.65
2018-03-06T15:00:04.742Z,35.70
2018-03-06T15:02:31.186Z,42.97
2018-03-06T15:04:57.759Z,47.85
2018-03-06T15:07:24.907Z,42.13
2018-03-06T15:09:52.851Z,43.45
2018-03-06T15:12:19.257Z,38.45
2018-03-06T15:14:45.661Z,54.35
2018-03-06T15:17:12.094Z,47.65
2018-03-06T15:19:41.410Z,52.65
2018-03-06T15:22:08.546Z,56.95
2018-03-06T15:24:35.051Z,45.08
2018-03-06T15:27:02.329Z,52.75
2018-03-06T15:29:28.790Z,40.80
2018-03-06T15:31:55.274Z,51.92
2018-03-06T15:34:21.795Z,52.83
2018-03-06T15:36:49.014Z,43.00
2018-03-06T15:39:16.856Z,50.97
2018-03-06T15:41:46.046Z,47.47
2018-03-06T15:44:13.659Z,39.08
2018-03-06T15:46:41.953Z,41.90
2018-03-06T15:49:08.493Z,48.20
2018-03-06T15:51:35.783Z,41.97
2018-03-06T15:54:03.059Z,40.25
2018-03-06T15:56:30.371Z,39.47
2018-03-06T15:58:57.097Z,43.13
2018-03-06T16:01:24.066Z,46.10
2018-03-06T16:03:50.592Z,41.40
2018-03-06T16:06:17.183Z,44.28
2018-03-06T16:08:46.219Z,43.75
2018-03-06T16:11:12.768Z,40.45
2018-03-06T16:13:39.415Z,41.70
2018-03-06T16:16:05.975Z,41.85
2018-03-06T16:18:32.447Z,40.67
2018-03-06T16:20:59.396Z,37.58
2018-03-06T16:23:26.057Z,44.70
2018-03-06T16:25:53.290Z,45.60
2018-03-06T16:28:19.791Z,44.17
2018-03-06T16:30:46.288Z,38.13
2018-03-06T16:33:12.741Z,47.60
2018-03-06T16:35:39.803Z,38.22
2018-03-06T16:38:06.333Z,43.67
2018-03-06T16:40:33.602Z,43.35
2018-03-06T16:43:00.777Z,40.47
2018-03-06T16:45:27.239Z,39.35
2018-03-06T16:47:53.642Z,45.33
2018-03-06T16:50:20.073Z,42.28
2018-03-06T16:52:46.493Z,41.72
2018-03-06T16:55:13.640Z,37.67
2018-03-06T16:57:40.070Z,42.85
2018-03-06T17:00:06.536Z,45.78
2018-03-06T17:02:35.392Z,44.65
2018-03-06T17:05:02.830Z,49.40
2018-03-06T17:07:29.274Z,42.40
2018-03-06T17:09:55.713Z,53.90
2018-03-06T17:12:22.150Z,60.58
2018-03-06T17:14:48.594Z,51.22
2018-03-06T17:17:15.767Z,52.45
2018-03-06T17:19:42.203Z,43.63
2018-03-06T17:22:09.339Z,49.78
2018-03-06T17:24:35.850Z,45.70
2018-03-06T17:27:03.103Z,42.55
2018-03-06T17:29:30.306Z,42.38
2018-03-06T17:31:56.724Z,43.78
2018-03-06T17:34:23.248Z,40.83
2018-03-06T17:36:49.649Z,40.30
2018-03-06T17:39:16.122Z,38.30
2018-03-06T17:41:43.260Z,41.53
2018-03-06T17:44:09.718Z,36.08
2018-03-06T17:46:36.106Z,37.95
2018-03-06T17:49:03.146Z,39.90
2018-03-06T17:51:30.337Z,38.45
2018-03-06T17:53:57.577Z,38.28
2018-03-06T17:56:23.984Z,41.25
2018-03-06T17:58:50.450Z,37.05
2018-03-06T18:01:16.856Z,39.40
2018-03-06T18:03:43.285Z,40.35
2018-03-06T18:06:09.801Z,37.85
2018-03-06T18:08:37.076Z,38.47
2018-03-06T18:11:04.300Z,36.42
2018-03-06T18:13:30.810Z,37.80
2018-03-06T18:15:57.286Z,40.67
2018-03-06T18:18:23.825Z,53.17
2018-03-06T18:20:50.263Z,49.63
2018-03-06T18:23:17.550Z,63.40
2018-03-06T18:25:44.731Z,69.90
2018-03-06T18:28:11.329Z,52.08
2018-03-06T18:30:37.742Z,78.10
2018-03-06T18:33:04.173Z,65.10
2018-03-06T18:35:31.354Z,68.03
2018-03-06T18:37:58.562Z,82.62
2018-03-06T18:40:25.099Z,66.22
2018-03-06T18:42:52.279Z,57.78
2018-03-06T18:45:18.701Z,61.97
2018-03-06T18:47:45.105Z,61.40
2018-03-06T18:50:32.434Z,71.03
2018-03-06T18:52:58.887Z,65.15
2018-03-06T18:55:25.260Z,67.82
2018-03-06T18:57:51.691Z,70.85
2018-03-06T19:14:00.885Z,51.45
2018-03-06T19:16:28.156Z,53.53
2018-03-06T19:18:54.861Z,55.00
2018-03-06T19:21:21.272Z,58.83
2018-03-06T19:23:47.815Z,59.13
2018-03-06T19:26:14.300Z,59.20
2018-03-06T19:28:40.883Z,54.28
2018-03-06T19:31:07.441Z,56.95
2018-03-06T19:33:34.606Z,56.72
2018-03-06T19:36:01.732Z,54.30
2018-03-06T19:38:28.993Z,56.78
2018-03-06T19:40:55.413Z,50.63
2018-03-06T19:43:23.986Z,47.55
2018-03-06T19:45:50.460Z,47.70
2018-03-06T19:48:20.183Z,55.42
2018-03-06T19:50:46.626Z,58.63
2018-03-06T19:53:13.053Z,65.28
2018-03-06T19:55:39.574Z,69.40
2018-03-06T19:58:06.745Z,58.03
2018-03-06T20:00:33.274Z,48.65
2018-03-06T20:03:00.457Z,46.95
2018-03-06T20:05:26.878Z,36.33
2018-03-06T20:07:53.486Z,35.05
2018-03-06T20:10:20.679Z,31.65
2018-03-06T20:12:47.111Z,31.05
2018-03-06T20:15:16.369Z,31.95
2018-03-06T20:17:42.997Z,29.58
2018-03-06T20:20:10.189Z,28.02
2018-03-06T20:22:36.603Z,28.10
2018-03-06T20:25:09.008Z,32.55
2018-03-06T20:27:36.150Z,37.83
2018-03-06T20:30:02.630Z,47.20
2018-03-06T20:32:36.010Z,49.95
2018-03-06T20:35:02.676Z,50.25
2018-03-06T20:37:29.993Z,41.40
2018-03-06T20:40:02.522Z,40.30
2018-03-06T20:42:28.970Z,40.58
2018-03-06T20:44:55.553Z,41.60
2018-03-06T20:47:22.155Z,41.58
2018-03-06T20:49:49.524Z,39.75
2018-03-06T20:52:16.707Z,37.17
2018-03-06T20:54:49.740Z,35.28
2018-03-06T20:57:17.381Z,35.72
2018-03-06T20:59:43.858Z,36.70
2018-03-06T21:02:10.561Z,38.88
2018-03-06T21:04:37.020Z,43.17
2018-03-06T21:07:03.626Z,44.13
2018-03-06T21:09:30.182Z,41.05
2018-03-06T21:11:56.739Z,41.97
2018-03-06T21:14:23.205Z,42.50
2018-03-06T21:16:49.615Z,46.22
2018-03-06T21:19:16.110Z,45.20
2018-03-06T21:21:43.390Z,47.22
2018-03-06T21:24:09.886Z,44.25
2018-03-06T21:26:36.342Z,50.55
2018-03-06T21:29:02.850Z,54.42
2018-03-06T21:31:30.129Z,54.70
2018-03-06T21:33:56.795Z,58.97
2018-03-06T21:36:23.276Z,59.40
2018-03-06T21:38:49.709Z,60.03
2018-03-06T21:41:16.165Z,60.80
2018-03-06T21:43:42.603Z,68.93
2018-03-06T21:46:09.762Z,66.03
2018-03-06T21:48:36.187Z,69.62
2018-03-06T21:51:02.695Z,68.90
2018-03-06T21:53:30.406Z,74.82
2018-03-06T21:55:57.643Z,71.53
2018-03-06T21:58:24.814Z,73.95
2018-03-06T22:00:52.011Z,73.00
2018-03-06T22:03:18.443Z,75.37
2018-03-06T22:05:44.869Z,71.90
2018-03-06T22:08:11.285Z,71.57
2018-03-06T22:10:37.704Z,76.68
2018-03-06T22:13:04.856Z,72.35
2018-03-06T22:15:31.252Z,75.30
2018-03-06T22:17:58.526Z,66.07
2018-03-06T22:20:25.691Z,70.87
2018-03-06T22:22:52.145Z,78.32
2018-03-06T22:25:19.293Z,75.97
2018-03-06T22:27:47.317Z,77.00
2018-03-06T22:30:14.504Z,77.00
2018-03-06T22:32:41.748Z,77.85
2018-03-06T22:35:08.889Z,69.03
2018-03-06T22:37:35.309Z,76.20
2018-03-06T22:40:01.793Z,73.50
2018-03-06T22:42:28.223Z,74.12
2018-03-06T22:44:54.641Z,73.15
2018-03-06T22:47:21.139Z,73.28
2018-03-06T22:49:47.557Z,78.87
2018-03-06T22:52:14.724Z,74.40
2018-03-06T22:54:41.124Z,84.68
2018-03-06T22:57:07.542Z,78.35
2018-03-06T22:59:34.699Z,77.00
2018-03-06T23:02:01.289Z,74.85
2018-03-06T23:04:27.720Z,77.45
2018-03-06T23:06:54.148Z,76.22
2018-03-06T23:09:20.574Z,77.82
2018-03-06T23:11:47.575Z,83.62
2018-03-06T23:14:14.076Z,81.50
2018-03-06T23:16:41.276Z,74.80
2018-03-06T23:19:07.812Z,74.78
2018-03-06T23:21:34.240Z,82.72
2018-03-06T23:24:00.650Z,75.78
2018-03-06T23:26:27.081Z,78.93
2018-03-06T23:28:53.504Z,75.90
2018-03-06T23:31:19.971Z,79.18
2018-03-06T23:33:47.126Z,72.10
2018-03-06T23:36:13.545Z,73.97
2018-03-06T23:38:39.979Z,70.37
2018-03-06T23:41:06.384Z,84.47
2018-03-06T23:43:32.814Z,78.60
2018-03-06T23:45:59.962Z,82.68
2018-03-06T23:48:26.387Z,74.35
2018-03-06T23:50:52.778Z,72.22
2018-03-06T23:53:19.159Z,74.30
2018-03-06T23:55:45.579Z,75.45
2018-03-06T23:58:12.001Z,72.20
